Time;durP1;ratioP1;P1;durP2;ratioP2;P2;SDS_P1;SDS_P2;PMS_P1;PMS_P2;Temp;Humidity;BMP_temperature;BMP_pressure;BME280_temperature;BME280_humidity;BME280_pressure;Samples;Min_cycle;Max_cycle;Signal;HPM_P1;HPM_P2
2024/01/07 00:00:15;;;;;;;11.25;7.07;;;0.70;94.60;;;;;;5101251;27;20031;-81
2024/01/07 00:02:41;;;;;;;11.93;7.05;;;0.60;94.30;;;;;;5117928;27;20031;-81
2024/01/07 00:05:07;;;;;;;12.73;7.18;;;0.70;94.50;;;;;;5100928;27;20035;-81
2024/01/07 00:07:33;;;;;;;10.50;6.80;;;0.70;94.40;;;;;;5118143;27;20027;-81
2024/01/07 00:09:59;;;;;;;9.20;6.45;;;0.70;94.30;;;;;;5117909;27;20456;-81
2024/01/07 00:12:25;;;;;;;10.43;7.60;;;0.80;94.40;;;;;;5117887;27;20039;-81
2024/01/07 00:14:51;;;;;;;10.40;7.05;;;0.70;93.80;;;;;;5117793;27;20491;-80
2024/01/07 00:17:16;;;;;;;11.82;7.47;;;0.70;94.10;;;;;;5100548;27;20126;-81
2024/01/07 00:19:42;;;;;;;11.40;6.97;;;0.70;94.10;;;;;;5117918;27;20073;-81
2024/01/07 00:22:08;;;;;;;11.55;7.43;;;0.70;94.00;;;;;;5100637;27;20107;-81
2024/01/07 00:24:33;;;;;;;11.48;7.65;;;0.70;94.00;;;;;;5084093;27;20036;-81
2024/01/07 00:26:59;;;;;;;13.00;7.93;;;0.70;93.80;;;;;;5134851;27;20091;-81
2024/01/07 00:29:25;;;;;;;10.73;7.05;;;0.70;94.00;;;;;;5117502;27;20035;-80
2024/01/07 00:31:51;;;;;;;10.80;8.23;;;0.70;94.20;;;;;;5116475;27;20121;-80
2024/01/07 00:34:16;;;;;;;12.18;7.32;;;0.80;94.00;;;;;;5083817;27;20501;-80
2024/01/07 00:36:42;;;;;;;12.18;7.57;;;0.70;94.00;;;;;;5083339;27;20399;-80
2024/01/07 00:39:08;;;;;;;11.30;7.15;;;0.70;93.90;;;;;;5083644;27;20036;-80
2024/01/07 00:41:33;;;;;;;11.60;7.45;;;0.70;93.90;;;;;;5117654;27;20038;-81
2024/01/07 00:43:59;;;;;;;13.38;7.60;;;0.70;93.70;;;;;;5083559;27;20144;-80
2024/01/07 00:46:25;;;;;;;11.60;8.02;;;0.60;93.60;;;;;;5100139;27;20039;-80
2024/01/07 00:48:50;;;;;;;10.50;7.00;;;0.60;93.70;;;;;;5100437;27;20031;-81
2024/01/07 00:51:16;;;;;;;9.77;7.28;;;0.70;93.90;;;;;;5117394;27;20039;-81
2024/01/07 00:53:42;;;;;;;11.48;7.57;;;0.60;93.30;;;;;;5116958;27;20095;-81
2024/01/07 00:56:07;;;;;;;10.30;7.20;;;0.50;93.30;;;;;;5099902;27;20031;-81
2024/01/07 00:58:33;;;;;;;10.43;7.05;;;0.50;93.30;;;;;;5099967;27;20088;-80
2024/01/07 01:01:00;;;;;;;9.55;6.57;;;0.60;93.50;;;;;;5134226;27;20031;-80
2024/01/07 01:03:26;;;;;;;10.20;7.15;;;0.60;93.60;;;;;;5133969;27;20092;-81
2024/01/07 01:05:52;;;;;;;13.25;7.50;;;0.60;93.40;;;;;;5116792;27;20509;-81
2024/01/07 01:08:18;;;;;;;10.27;7.03;;;0.60;93.50;;;;;;5116608;27;20451;-81
2024/01/07 01:10:44;;;;;;;11.40;8.18;;;0.50;93.50;;;;;;5099816;27;20043;-81
2024/01/07 01:13:10;;;;;;;12.23;7.43;;;0.60;93.40;;;;;;5099756;27;20050;-81
2024/01/07 01:15:35;;;;;;;12.88;7.68;;;0.50;93.40;;;;;;5099707;27;20452;-80
2024/01/07 01:18:01;;;;;;;11.93;7.88;;;0.60;93.60;;;;;;5082579;27;20475;-81
2024/01/07 01:20:27;;;;;;;11.90;7.78;;;0.60;93.60;;;;;;5116598;27;20077;-81
2024/01/07 01:22:52;;;;;;;11.43;7.13;;;0.50;93.40;;;;;;5116462;27;20066;-81
2024/01/07 01:25:18;;;;;;;9.55;6.57;;;0.50;93.40;;;;;;5099505;27;20512;-81
2024/01/07 01:27:44;;;;;;;15.70;8.50;;;0.60;93.80;;;;;;5116303;27;20050;-81
2024/01/07 01:30:11;;;;;;;10.30;7.00;;;0.60;93.60;;;;;;5099574;27;20046;-81
2024/01/07 01:32:37;;;;;;;14.07;8.13;;;0.60;93.60;;;;;;5099430;27;20039;-81
2024/01/07 01:35:04;;;;;;;11.85;7.88;;;0.60;93.60;;;;;;5116197;27;20130;-81
2024/01/07 01:37:32;;;;;;;12.05;7.60;;;0.60;93.70;;;;;;5099336;27;20134;-81
2024/01/07 01:39:58;;;;;;;11.77;8.13;;;0.60;93.60;;;;;;5083369;27;20045;-81
2024/01/07 01:42:24;;;;;;;12.27;7.90;;;0.60;93.60;;;;;;5099135;27;20088;-81
2024/01/07 01:44:50;;;;;;;12.63;8.73;;;0.60;93.70;;;;;;5133168;27;20039;-81
2024/01/07 01:47:16;;;;;;;14.80;8.75;;;0.60;93.40;;;;;;5133320;27;20133;-81
2024/01/07 01:49:42;;;;;;;12.15;8.38;;;0.60;93.30;;;;;;5098982;27;20039;-81
2024/01/07 01:52:09;;;;;;;12.38;8.23;;;0.50;93.50;;;;;;5116037;27;20499;-82
2024/01/07 01:54:35;;;;;;;10.68;8.00;;;0.50;93.50;;;;;;5133481;27;20421;-81
2024/01/07 01:57:01;;;;;;;11.50;7.53;;;0.50;93.60;;;;;;5098878;27;20087;-81
2024/01/07 01:59:28;;;;;;;12.05;7.53;;;0.50;93.90;;;;;;5115753;27;20031;-81
2024/01/07 02:01:55;;;;;;;10.90;6.40;;;0.60;93.90;;;;;;5132919;27;20039;-81
2024/01/07 02:04:21;;;;;;;14.25;7.32;;;0.60;94.00;;;;;;5099162;27;20468;-81
2024/01/07 02:06:46;;;;;;;11.50;8.23;;;0.60;93.90;;;;;;5115741;27;20117;-81
2024/01/07 02:09:12;;;;;;;15.07;8.40;;;0.60;93.90;;;;;;5132778;27;20039;-82
2024/01/07 02:11:38;;;;;;;12.85;7.40;;;0.60;93.90;;;;;;5132780;27;20039;-82
2024/01/07 02:14:04;;;;;;;10.18;7.32;;;0.60;93.90;;;;;;5115568;28;20066;-81
2024/01/07 02:16:29;;;;;;;13.10;6.85;;;0.60;93.90;;;;;;5115580;28;20138;-80
2024/01/07 02:18:55;;;;;;;10.65;6.90;;;0.60;94.00;;;;;;5098588;28;20168;-81
2024/01/07 02:21:21;;;;;;;12.70;8.57;;;0.60;94.00;;;;;;5132739;28;20043;-81
2024/01/07 02:23:46;;;;;;;10.35;7.05;;;0.60;94.10;;;;;;5098843;28;20039;-81
2024/01/07 02:26:12;;;;;;;10.57;6.75;;;0.60;94.00;;;;;;5081786;28;20376;-81
2024/01/07 02:28:38;;;;;;;10.65;7.20;;;0.60;94.00;;;;;;5098467;28;20040;-81
2024/01/07 02:31:03;;;;;;;11.07;7.80;;;0.60;94.00;;;;;;5132961;28;20104;-80
2024/01/07 02:33:30;;;;;;;9.38;6.85;;;0.60;94.00;;;;;;5115699;28;20559;-80
2024/01/07 02:35:56;;;;;;;11.57;7.38;;;0.60;93.80;;;;;;5115766;28;20456;-81
2024/01/07 02:38:22;;;;;;;11.20;6.63;;;0.60;93.90;;;;;;5132915;28;20039;-83
2024/01/07 02:40:48;;;;;;;11.25;6.93;;;0.60;94.00;;;;;;5115665;28;20032;-81
2024/01/07 02:43:13;;;;;;;9.88;6.68;;;0.60;93.70;;;;;;5115783;28;20067;-81
2024/01/07 02:45:39;;;;;;;9.77;7.07;;;0.50;93.90;;;;;;5115435;28;20042;-81
2024/01/07 02:48:05;;;;;;;12.10;7.00;;;0.40;93.70;;;;;;5098419;28;20042;-81
2024/01/07 02:50:32;;;;;;;11.32;7.13;;;0.40;93.70;;;;;;5115295;28;20039;-81
2024/01/07 02:52:57;;;;;;;9.88;6.30;;;0.40;93.80;;;;;;5081426;27;20092;-80
2024/01/07 02:55:23;;;;;;;9.73;6.35;;;0.40;93.80;;;;;;5101385;27;20035;-80
2024/01/07 02:57:49;;;;;;;10.30;6.28;;;0.40;93.90;;;;;;5102430;27;20082;-81
2024/01/07 03:00:15;;;;;;;9.38;5.88;;;0.50;93.80;;;;;;5085416;27;20122;-81
2024/01/07 03:02:40;;;;;;;11.52;5.88;;;0.40;93.60;;;;;;5119258;27;20037;-81
2024/01/07 03:05:06;;;;;;;8.88;5.75;;;0.30;93.60;;;;;;5119139;27;20079;-80
2024/01/07 03:07:32;;;;;;;10.27;6.60;;;0.40;93.90;;;;;;5102505;27;20267;-80
2024/01/07 03:09:58;;;;;;;11.93;6.88;;;0.40;93.70;;;;;;5119278;27;20441;-80
2024/01/07 03:12:24;;;;;;;8.32;5.00;;;0.40;93.90;;;;;;5084998;27;20032;-80
2024/01/07 03:14:49;;;;;;;9.77;5.68;;;0.40;93.50;;;;;;5102219;27;20035;-81
2024/01/07 03:17:17;;;;;;;11.15;6.78;;;0.30;93.50;;;;;;5101765;27;20096;-81
2024/01/07 03:19:42;;;;;;;9.90;6.18;;;0.30;93.50;;;;;;5102366;27;20070;-81
2024/01/07 03:22:08;;;;;;;9.13;5.43;;;0.30;93.50;;;;;;5119266;27;20043;-82
2024/01/07 03:24:34;;;;;;;7.18;5.88;;;0.40;93.60;;;;;;5119184;27;20452;-82
2024/01/07 03:27:00;;;;;;;8.10;5.63;;;0.40;93.70;;;;;;5101847;27;20134;-81
2024/01/07 03:29:25;;;;;;;9.80;5.60;;;0.40;93.60;;;;;;5101950;27;20039;-81
2024/01/07 03:31:52;;;;;;;10.00;6.13;;;0.50;93.80;;;;;;5084991;27;20050;-80
2024/01/07 03:34:19;;;;;;;9.23;5.85;;;0.50;93.70;;;;;;5102287;27;20126;-79
2024/01/07 03:36:44;;;;;;;9.13;5.47;;;0.50;93.80;;;;;;5101562;27;20434;-78
2024/01/07 03:39:10;;;;;;;8.60;5.30;;;0.50;93.80;;;;;;5135453;27;20046;-79
2024/01/07 03:41:36;;;;;;;6.88;4.97;;;0.50;93.70;;;;;;5084726;27;20047;-78
2024/01/07 03:44:01;;;;;;;8.38;5.18;;;0.50;93.70;;;;;;5118399;27;20058;-79
2024/01/07 03:46:27;;;;;;;8.32;5.60;;;0.50;93.60;;;;;;5118303;27;20041;-79
2024/01/07 03:48:53;;;;;;;8.05;4.50;;;0.50;93.60;;;;;;5101395;27;20039;-79
2024/01/07 03:51:19;;;;;;;8.80;4.85;;;0.60;93.90;;;;;;5118497;27;20045;-79
2024/01/07 03:53:44;;;;;;;6.45;4.18;;;0.60;93.50;;;;;;5101529;27;20540;-79
2024/01/07 03:56:10;;;;;;;6.13;4.75;;;0.50;93.50;;;;;;5135379;27;20050;-79
2024/01/07 03:58:36;;;;;;;7.40;4.55;;;0.50;93.30;;;;;;5084181;27;20494;-79
2024/01/07 04:01:01;;;;;;;7.43;4.65;;;0.40;92.80;;;;;;5101213;27;20043;-79
2024/01/07 04:03:27;;;;;;;6.82;4.55;;;0.50;93.50;;;;;;5101016;27;20035;-79
2024/01/07 04:05:53;;;;;;;6.68;4.68;;;0.50;93.10;;;;;;5117768;27;20148;-79
2024/01/07 04:08:19;;;;;;;6.82;4.30;;;0.50;93.20;;;;;;5100976;27;20162;-79
2024/01/07 04:10:44;;;;;;;5.32;4.00;;;0.50;93.20;;;;;;5117978;27;20038;-79
2024/01/07 04:13:10;;;;;;;5.28;3.53;;;0.50;93.20;;;;;;5118078;27;20043;-79
2024/01/07 04:15:36;;;;;;;4.10;3.30;;;0.50;92.80;;;;;;5117910;27;20091;-79
2024/01/07 04:18:03;;;;;;;5.93;3.65;;;0.60;93.10;;;;;;5117746;27;20035;-79
2024/01/07 04:20:29;;;;;;;4.47;3.58;;;0.60;93.00;;;;;;5117778;27;20039;-80
2024/01/07 04:22:55;;;;;;;6.60;3.70;;;0.60;92.90;;;;;;5101174;27;20050;-79
2024/01/07 04:25:21;;;;;;;5.13;3.13;;;0.50;92.00;;;;;;5101120;27;20035;-80
2024/01/07 04:27:46;;;;;;;5.60;3.53;;;0.50;91.90;;;;;;5117985;27;20482;-79
2024/01/07 04:30:12;;;;;;;5.80;3.60;;;0.50;92.30;;;;;;5117943;27;20046;-79
2024/01/07 04:32:38;;;;;;;6.90;3.00;;;0.50;92.00;;;;;;5117461;27;20406;-79
2024/01/07 04:35:04;;;;;;;4.18;2.72;;;0.40;91.40;;;;;;5117539;27;20084;-79
2024/01/07 04:37:30;;;;;;;9.18;4.40;;;0.40;91.40;;;;;;5117111;27;20126;-79
2024/01/07 04:39:55;;;;;;;6.43;3.40;;;0.40;91.50;;;;;;5100445;27;20078;-79
2024/01/07 04:42:21;;;;;;;4.65;3.40;;;0.50;91.90;;;;;;5117405;27;20118;-79
2024/01/07 04:44:47;;;;;;;4.63;3.30;;;0.50;91.90;;;;;;5117424;27;20031;-80
2024/01/07 04:47:36;;;;;;;5.93;3.65;;;0.40;91.40;;;;;;5134263;27;20035;-80
2024/01/07 04:50:03;;;;;;;8.60;4.22;;;0.50;92.10;;;;;;5134575;27;20123;-80
2024/01/07 04:52:29;;;;;;;5.85;3.35;;;0.50;91.80;;;;;;5117758;27;20390;-80
2024/01/07 04:54:55;;;;;;;4.72;3.00;;;0.50;91.70;;;;;;5083492;27;20039;-80
2024/01/07 04:57:22;;;;;;;6.53;3.40;;;0.60;92.20;;;;;;5134163;27;20089;-79
2024/01/07 04:59:49;;;;;;;4.72;3.30;;;0.60;91.50;;;;;;5117227;27;20114;-80
2024/01/07 05:02:14;;;;;;;5.43;3.30;;;0.60;92.00;;;;;;5117196;27;20456;-79
2024/01/07 05:04:41;;;;;;;5.55;3.17;;;0.60;92.20;;;;;;5083223;27;20179;-79
2024/01/07 05:07:07;;;;;;;5.65;3.20;;;0.60;92.10;;;;;;5116784;27;20172;-80
2024/01/07 05:09:33;;;;;;;4.88;3.15;;;0.50;91.50;;;;;;5100092;27;20121;-80
2024/01/07 05:11:59;;;;;;;4.18;2.88;;;0.50;91.80;;;;;;5117024;27;20047;-79
2024/01/07 05:14:24;;;;;;;6.13;3.15;;;0.50;91.70;;;;;;5083214;27;20387;-79
2024/01/07 05:16:50;;;;;;;5.18;2.45;;;0.50;91.40;;;;;;5099072;27;20059;-80
2024/01/07 05:19:16;;;;;;;4.55;2.85;;;0.50;91.20;;;;;;5099787;27;20118;-79
2024/01/07 05:21:41;;;;;;;5.40;3.03;;;0.50;91.20;;;;;;5116527;27;20035;-80
2024/01/07 05:24:07;;;;;;;5.03;2.30;;;0.50;90.90;;;;;;5099631;27;20035;-80
2024/01/07 05:26:44;;;;;;;5.35;2.40;;;0.40;90.90;;;;;;5099873;27;20074;-80
2024/01/07 05:29:10;;;;;;;4.28;2.50;;;0.50;91.00;;;;;;5116507;27;20050;-80
2024/01/07 05:31:35;;;;;;;3.15;2.30;;;0.40;90.90;;;;;;5133750;27;20039;-80
2024/01/07 05:34:01;;;;;;;3.95;2.15;;;0.40;90.50;;;;;;5133658;27;20039;-80
2024/01/07 05:36:27;;;;;;;4.25;2.20;;;0.40;90.40;;;;;;5133105;27;20046;-79
2024/01/07 05:38:53;;;;;;;3.55;2.58;;;0.40;90.60;;;;;;5133393;27;20051;-80
2024/01/07 05:41:18;;;;;;;5.00;2.40;;;0.40;90.20;;;;;;5099219;27;20127;-80
2024/01/07 05:43:44;;;;;;;5.93;2.85;;;0.40;90.40;;;;;;5082530;27;20280;-79
2024/01/07 05:46:11;;;;;;;5.32;2.50;;;0.40;89.70;;;;;;5132869;27;20042;-79
2024/01/07 05:48:44;;;;;;;4.78;2.58;;;0.40;90.20;;;;;;5116037;27;20047;-80
2024/01/07 05:51:10;;;;;;;3.85;2.25;;;0.40;90.20;;;;;;5116384;27;20038;-79
2024/01/07 05:53:35;;;;;;;5.82;2.20;;;0.50;90.90;;;;;;5116257;27;20047;-80
2024/01/07 05:56:02;;;;;;;4.22;2.08;;;0.50;91.00;;;;;;5099067;27;20030;-79
2024/01/07 05:58:28;;;;;;;3.58;1.90;;;0.50;90.50;;;;;;5099255;27;20051;-79
2024/01/07 06:00:54;;;;;;;4.53;2.00;;;0.50;90.50;;;;;;5116007;27;20395;-79
2024/01/07 06:03:20;;;;;;;5.05;2.75;;;0.50;90.30;;;;;;5098893;27;20042;-79
2024/01/07 06:05:45;;;;;;;4.63;2.20;;;0.50;89.80;;;;;;5098998;27;20043;-80
2024/01/07 06:08:12;;;;;;;6.43;2.25;;;0.50;89.40;;;;;;5082239;27;20042;-81
2024/01/07 06:10:39;;;;;;;4.95;2.20;;;0.50;89.80;;;;;;5099301;28;20047;-79
2024/01/07 06:13:05;;;;;;;3.70;2.03;;;0.50;89.70;;;;;;5115760;27;20087;-80
2024/01/07 06:15:30;;;;;;;5.35;2.05;;;0.50;90.20;;;;;;5132726;27;20035;-80
2024/01/07 06:17:56;;;;;;;4.30;2.00;;;0.50;89.90;;;;;;5132782;27;20080;-80
2024/01/07 06:20:22;;;;;;;3.22;1.52;;;0.50;89.20;;;;;;5115958;28;20046;-80
2024/01/07 06:22:48;;;;;;;2.20;1.25;;;0.50;89.50;;;;;;5082158;28;20039;-79
2024/01/07 06:25:14;;;;;;;2.85;1.70;;;0.50;89.60;;;;;;5115946;28;20027;-79
2024/01/07 06:27:39;;;;;;;5.28;1.80;;;0.60;90.50;;;;;;5082335;27;20553;-79
2024/01/07 06:30:06;;;;;;;4.68;1.70;;;0.50;88.30;;;;;;5086304;27;20073;-79
2024/01/07 06:32:32;;;;;;;2.63;1.95;;;0.40;88.30;;;;;;5121019;27;20074;-79
2024/01/07 06:35:01;;;;;;;3.85;1.55;;;0.40;88.60;;;;;;5103710;27;20069;-79
2024/01/07 06:37:29;;;;;;;4.38;1.67;;;0.50;88.80;;;;;;5102534;27;20058;-79
2024/01/07 06:39:55;;;;;;;3.38;2.30;;;0.50;89.10;;;;;;5103211;27;20134;-79
2024/01/07 06:42:21;;;;;;;2.40;1.67;;;0.50;89.10;;;;;;5102959;27;20035;-80
2024/01/07 06:44:46;;;;;;;3.20;1.70;;;0.50;89.50;;;;;;5102692;27;20403;-79
2024/01/07 06:47:12;;;;;;;3.35;1.60;;;0.50;88.80;;;;;;5119880;27;20148;-79
2024/01/07 06:49:38;;;;;;;4.47;1.85;;;0.50;88.40;;;;;;5137058;27;20494;-80
2024/01/07 06:52:05;;;;;;;2.78;1.70;;;0.50;88.10;;;;;;5085738;27;20126;-80
2024/01/07 06:54:31;;;;;;;2.20;1.30;;;0.50;88.50;;;;;;5119457;27;20039;-79
2024/01/07 06:56:56;;;;;;;4.53;1.67;;;0.40;87.90;;;;;;5102218;27;20035;-79
2024/01/07 06:59:22;;;;;;;4.30;1.60;;;0.50;88.60;;;;;;5102528;27;20043;-79
2024/01/07 07:01:48;;;;;;;5.20;1.58;;;0.50;89.00;;;;;;5102271;27;20078;-79
2024/01/07 07:04:13;;;;;;;4.13;1.88;;;0.50;88.50;;;;;;5119169;27;20039;-79
2024/01/07 07:06:39;;;;;;;3.75;1.55;;;0.40;88.30;;;;;;5085384;27;20070;-79
2024/01/07 07:09:05;;;;;;;3.25;1.60;;;0.40;88.10;;;;;;5119201;27;20035;-79
2024/01/07 07:11:31;;;;;;;4.80;1.70;;;0.40;88.20;;;;;;5119322;27;20035;-79
2024/01/07 07:13:57;;;;;;;3.17;2.10;;;0.40;88.40;;;;;;5119192;27;20047;-79
2024/01/07 07:16:23;;;;;;;3.35;1.65;;;0.50;88.40;;;;;;5119159;27;20035;-79
2024/01/07 07:18:48;;;;;;;4.55;1.70;;;0.40;88.50;;;;;;5118940;27;20039;-79
2024/01/07 07:21:14;;;;;;;2.80;1.48;;;0.40;88.50;;;;;;5102234;27;20037;-80
2024/01/07 07:23:40;;;;;;;2.58;1.40;;;0.40;87.70;;;;;;5118845;27;20399;-79
2024/01/07 07:26:06;;;;;;;2.00;1.42;;;0.40;87.60;;;;;;5119176;27;20039;-80
2024/01/07 07:28:32;;;;;;;5.28;1.83;;;0.40;88.10;;;;;;5119026;27;20043;-79
2024/01/07 07:30:58;;;;;;;2.60;1.85;;;0.40;88.40;;;;;;5085028;27;20041;-79
2024/01/07 07:33:24;;;;;;;4.03;1.70;;;0.40;87.70;;;;;;5101697;27;20039;-79
2024/01/07 07:35:50;;;;;;;3.45;1.83;;;0.40;87.80;;;;;;5118743;27;20506;-79
2024/01/07 07:38:15;;;;;;;4.93;1.83;;;0.40;88.20;;;;;;5135844;27;20102;-79
2024/01/07 07:40:41;;;;;;;4.13;1.75;;;0.40;88.00;;;;;;5119000;27;20039;-79
2024/01/07 07:43:08;;;;;;;4.40;2.05;;;0.50;88.70;;;;;;5102711;27;20070;-80
2024/01/07 07:45:34;;;;;;;4.22;1.90;;;0.40;88.20;;;;;;5118654;27;20074;-79
2024/01/07 07:48:00;;;;;;;5.13;1.95;;;0.50;88.60;;;;;;5101600;27;20043;-79
2024/01/07 07:50:25;;;;;;;3.55;1.63;;;0.40;88.50;;;;;;5084696;27;20036;-79
2024/01/07 07:52:51;;;;;;;3.47;1.92;;;0.40;88.10;;;;;;5101329;27;20050;-79
2024/01/07 07:55:17;;;;;;;3.90;1.77;;;0.40;88.10;;;;;;5135278;27;20193;-78
2024/01/07 07:57:42;;;;;;;3.00;2.00;;;0.40;88.40;;;;;;5118185;27;20041;-79
2024/01/07 08:00:12;;;;;;;2.90;2.00;;;0.40;88.30;;;;;;5117781;27;20043;-79
2024/01/07 08:02:39;;;;;;;4.10;2.40;;;0.50;88.70;;;;;;5134730;27;20035;-80
2024/01/07 08:05:06;;;;;;;3.25;2.20;;;0.40;88.50;;;;;;5117435;27;20046;-80
2024/01/07 08:07:31;;;;;;;6.07;2.55;;;0.50;88.90;;;;;;5117482;27;20039;-80
2024/01/07 08:09:57;;;;;;;5.35;2.40;;;0.40;89.00;;;;;;5099280;27;20039;-80
2024/01/07 08:12:23;;;;;;;3.92;2.25;;;0.30;88.50;;;;;;5100994;27;20080;-79
2024/01/07 08:14:49;;;;;;;4.93;2.42;;;0.30;87.90;;;;;;5084187;27;20507;-79
2024/01/07 08:17:15;;;;;;;4.07;2.17;;;0.20;88.40;;;;;;5117493;27;20135;-78
2024/01/07 08:19:41;;;;;;;3.10;1.90;;;0.30;89.20;;;;;;5116497;27;20035;-79
2024/01/07 08:22:07;;;;;;;4.28;1.90;;;0.10;88.40;;;;;;5134444;27;20082;-78
2024/01/07 08:24:32;;;;;;;4.78;2.00;;;0.10;88.00;;;;;;5134426;27;20398;-79
2024/01/07 08:26:58;;;;;;;3.35;1.98;;;0.10;88.30;;;;;;5100641;27;20335;-79
2024/01/07 08:29:25;;;;;;;3.03;1.85;;;0.10;88.50;;;;;;5134316;27;20043;-80
2024/01/07 08:31:51;;;;;;;3.35;2.05;;;0.00;88.40;;;;;;5083953;27;20043;-80
2024/01/07 08:34:16;;;;;;;6.20;2.42;;;0.00;88.00;;;;;;5117342;27;20046;-80
2024/01/07 08:36:42;;;;;;;3.25;1.80;;;0.00;88.30;;;;;;5099845;27;20058;-79
2024/01/07 08:39:08;;;;;;;3.45;2.10;;;0.00;88.00;;;;;;5117228;27;20096;-80
2024/01/07 08:41:34;;;;;;;3.30;1.73;;;0.00;88.20;;;;;;5117322;27;20051;-78
2024/01/07 08:43:59;;;;;;;3.85;2.22;;;0.00;88.40;;;;;;5134587;27;20038;-79
2024/01/07 08:46:25;;;;;;;3.78;2.03;;;-3276.70;88.40;;;;;;5100617;27;20035;-79
2024/01/07 08:48:51;;;;;;;2.42;1.80;;;-3276.70;88.40;;;;;;5133775;27;20039;-79
2024/01/07 08:51:17;;;;;;;3.33;2.15;;;0.00;88.70;;;;;;5133594;27;20043;-79
2024/01/07 08:53:42;;;;;;;4.10;2.05;;;-3276.70;88.60;;;;;;5134588;27;20383;-79
2024/01/07 08:56:08;;;;;;;4.18;1.90;;;0.00;88.70;;;;;;5117109;27;20535;-79
2024/01/07 08:58:34;;;;;;;3.05;1.90;;;0.00;88.50;;;;;;5100017;27;20031;-79
2024/01/07 09:01:00;;;;;;;2.92;1.60;;;0.00;88.80;;;;;;5117080;27;20088;-79
2024/01/07 09:03:26;;;;;;;4.30;2.05;;;0.10;89.00;;;;;;5116980;27;20035;-79
2024/01/07 09:05:51;;;;;;;3.95;2.28;;;0.10;88.50;;;;;;5116905;27;20445;-79
2024/01/07 09:08:17;;;;;;;3.00;2.10;;;0.20;88.90;;;;;;5100101;27;20069;-79
2024/01/07 09:10:43;;;;;;;4.75;2.30;;;0.30;89.10;;;;;;5116188;27;20475;-80
2024/01/07 09:13:09;;;;;;;4.28;2.15;;;0.20;88.10;;;;;;5134087;27;20088;-80
2024/01/07 09:15:35;;;;;;;3.42;1.92;;;0.20;88.20;;;;;;5134052;27;20035;-79
2024/01/07 09:18:00;;;;;;;4.35;2.92;;;0.30;88.70;;;;;;5099810;27;20035;-78
2024/01/07 09:20:26;;;;;;;3.85;2.47;;;0.30;87.20;;;;;;5133710;27;20535;-80
2024/01/07 09:22:52;;;;;;;3.00;1.70;;;0.20;86.60;;;;;;5116475;27;20070;-80
2024/01/07 09:25:17;;;;;;;3.75;2.60;;;0.30;86.80;;;;;;5099527;27;20086;-79
2024/01/07 09:27:43;;;;;;;3.55;1.70;;;0.30;86.10;;;;;;5116608;27;20087;-80
2024/01/07 09:30:14;;;;;;;4.78;1.92;;;0.30;87.00;;;;;;5099781;27;20476;-80
2024/01/07 09:32:41;;;;;;;4.65;2.30;;;0.40;86.70;;;;;;5133737;27;20130;-79
2024/01/07 09:35:07;;;;;;;4.55;2.10;;;0.30;86.10;;;;;;5100028;27;20070;-80
2024/01/07 09:37:33;;;;;;;3.50;1.90;;;0.30;86.20;;;;;;5115943;27;20055;-79
2024/01/07 09:39:59;;;;;;;5.40;3.42;;;0.40;85.80;;;;;;5117520;27;20038;-79
2024/01/07 09:42:25;;;;;;;4.15;1.88;;;0.40;86.70;;;;;;5084151;27;20125;-79
2024/01/07 09:44:50;;;;;;;3.83;2.17;;;0.50;86.60;;;;;;5117035;27;20384;-80
2024/01/07 09:47:16;;;;;;;3.05;1.63;;;0.50;87.10;;;;;;5134249;27;20098;-80
2024/01/07 09:49:43;;;;;;;4.78;1.90;;;0.50;86.60;;;;;;5099925;27;20032;-80
2024/01/07 09:52:10;;;;;;;3.92;2.00;;;0.60;86.90;;;;;;5116881;27;20438;-80
2024/01/07 09:54:40;;;;;;;3.60;2.00;;;0.60;87.20;;;;;;5090395;28;20035;-81
2024/01/07 09:57:08;;;;;;;4.30;2.42;;;0.60;86.30;;;;;;5116100;27;20433;-80
2024/01/07 09:59:35;;;;;;;4.40;2.85;;;0.60;86.80;;;;;;5098771;27;20046;-80
2024/01/07 10:02:01;;;;;;;3.58;1.95;;;0.70;86.90;;;;;;5115311;27;20042;-81
2024/01/07 10:04:31;;;;;;;4.25;2.20;;;0.60;86.60;;;;;;5116630;27;20031;-81
2024/01/07 10:06:57;;;;;;;4.03;2.13;;;0.60;86.20;;;;;;5116325;28;20075;-80
2024/01/07 10:09:43;;;;;;;2.47;1.65;;;0.70;86.80;;;;;;5133764;27;20423;-80
2024/01/07 10:12:09;;;;;;;3.13;1.60;;;0.70;86.50;;;;;;5116791;27;20051;-79
2024/01/07 10:14:35;;;;;;;2.50;1.80;;;0.70;85.90;;;;;;5134866;27;20425;-80
2024/01/07 10:17:01;;;;;;;3.13;1.90;;;0.80;86.80;;;;;;5099656;28;20047;-80
2024/01/07 10:19:27;;;;;;;2.92;2.03;;;0.80;86.30;;;;;;5099847;28;20050;-79
2024/01/07 10:22:00;;;;;;;5.57;2.10;;;0.80;86.20;;;;;;5134207;27;20031;-81
2024/01/07 10:24:26;;;;;;;4.93;2.22;;;0.80;86.00;;;;;;5134079;27;20071;-79
2024/01/07 10:26:52;;;;;;;5.72;2.05;;;0.80;86.30;;;;;;5116969;28;20156;-80
2024/01/07 10:29:18;;;;;;;4.30;2.20;;;0.80;86.00;;;;;;5099221;28;20543;-79
2024/01/07 10:31:44;;;;;;;4.28;2.47;;;0.80;85.30;;;;;;5116425;28;20087;-79
2024/01/07 10:34:10;;;;;;;3.75;2.00;;;0.80;85.40;;;;;;5116023;28;20047;-80
2024/01/07 10:36:37;;;;;;;2.80;2.30;;;0.90;85.90;;;;;;5115210;28;20188;-80
2024/01/07 10:39:03;;;;;;;3.53;2.10;;;0.90;86.30;;;;;;5116293;28;20399;-80
2024/01/07 10:41:30;;;;;;;6.07;2.50;;;0.90;85.80;;;;;;5098502;28;20032;-80
2024/01/07 10:43:56;;;;;;;4.85;2.28;;;0.90;85.30;;;;;;5132716;28;20045;-79
2024/01/07 10:46:22;;;;;;;4.53;2.15;;;1.00;85.90;;;;;;5132516;28;20043;-80
2024/01/07 10:48:58;;;;;;;4.30;2.00;;;1.00;86.50;;;;;;5098316;28;20388;-79
2024/01/07 10:51:26;;;;;;;5.28;1.90;;;1.00;86.40;;;;;;5132628;28;20046;-80
2024/01/07 10:53:54;;;;;;;3.88;1.95;;;1.10;85.90;;;;;;5115329;28;20043;-81
2024/01/07 10:56:23;;;;;;;3.45;1.98;;;1.10;85.60;;;;;;5115516;28;20043;-79
2024/01/07 10:58:54;;;;;;;3.17;2.10;;;1.10;85.60;;;;;;5115180;28;20097;-80
2024/01/07 11:01:21;;;;;;;3.17;2.20;;;1.20;86.10;;;;;;5132658;28;20074;-80
2024/01/07 11:03:50;;;;;;;3.15;2.33;;;1.30;86.00;;;;;;5132700;28;20047;-81
2024/01/07 11:06:52;;;;;;;5.18;2.35;;;1.30;85.20;;;;;;5116314;28;20043;-80
2024/01/07 11:09:44;;;;;;;4.80;2.50;;;1.40;85.50;;;;;;5132598;28;20066;-81
2024/01/07 11:12:11;;;;;;;3.90;2.40;;;1.40;84.60;;;;;;5115536;28;20134;-80
2024/01/07 11:14:45;;;;;;;3.55;2.63;;;1.50;83.80;;;;;;5132513;27;20039;-81
2024/01/07 11:17:13;;;;;;;3.53;2.08;;;1.60;84.60;;;;;;5119139;27;20511;-80
2024/01/07 11:19:54;;;;;;;6.05;2.78;;;1.80;84.60;;;;;;5136064;27;20035;-79
2024/01/07 11:22:23;;;;;;;3.47;2.40;;;1.90;83.80;;;;;;5118961;27;20039;-81
2024/01/07 11:24:50;;;;;;;4.50;2.83;;;2.10;85.60;;;;;;5118983;27;20039;-81
2024/01/07 11:27:16;;;;;;;3.22;2.10;;;2.10;84.90;;;;;;5102645;27;20051;-81
2024/01/07 11:29:41;;;;;;;4.50;3.10;;;2.20;83.50;;;;;;5118795;27;20431;-81
2024/01/07 11:32:08;;;;;;;4.40;2.60;;;2.30;82.10;;;;;;5135835;27;20095;-81
2024/01/07 11:34:43;;;;;;;4.40;2.60;;;2.40;83.80;;;;;;5135782;27;20463;-80
2024/01/07 11:37:11;;;;;;;3.92;2.42;;;2.50;84.90;;;;;;5117091;27;20131;-81
2024/01/07 11:39:37;;;;;;;5.90;2.63;;;2.50;84.40;;;;;;5117156;27;20441;-81
2024/01/07 11:42:06;;;;;;;4.25;2.35;;;2.60;83.90;;;;;;5118539;27;20035;-80
2024/01/07 11:44:36;;;;;;;4.95;2.58;;;2.60;82.40;;;;;;5118788;27;20042;-80
2024/01/07 11:47:03;;;;;;;3.28;2.30;;;2.80;83.70;;;;;;5102023;27;20057;-80
2024/01/07 11:49:29;;;;;;;4.22;2.55;;;3.00;83.30;;;;;;5101795;27;20043;-80
2024/01/07 11:51:55;;;;;;;4.50;2.25;;;3.10;83.50;;;;;;5118417;27;20444;-81
2024/01/07 11:54:20;;;;;;;3.83;2.33;;;3.30;83.50;;;;;;5101533;27;20126;-79
2024/01/07 11:56:46;;;;;;;3.78;2.15;;;3.40;80.70;;;;;;5118309;27;20039;-80
2024/01/07 11:59:12;;;;;;;3.03;2.05;;;3.60;81.10;;;;;;5118144;27;20434;-80
2024/01/07 12:01:38;;;;;;;4.20;2.63;;;3.70;79.50;;;;;;5101175;27;20035;-80
2024/01/07 12:04:04;;;;;;;8.20;2.78;;;3.90;81.00;;;;;;5101061;27;20443;-80
2024/01/07 12:06:30;;;;;;;4.07;2.17;;;4.00;77.50;;;;;;5118246;27;20140;-80
2024/01/07 12:08:55;;;;;;;7.15;2.75;;;4.00;80.80;;;;;;5117934;27;20086;-80
2024/01/07 12:11:21;;;;;;;4.40;2.30;;;4.00;78.90;;;;;;5101159;27;20070;-80
2024/01/07 12:13:49;;;;;;;4.40;2.05;;;4.20;78.90;;;;;;5135158;27;20043;-80
2024/01/07 12:16:15;;;;;;;3.42;2.28;;;4.30;78.30;;;;;;5101245;27;20424;-80
2024/01/07 12:18:40;;;;;;;5.18;2.40;;;4.40;77.00;;;;;;5117737;27;20034;-80
2024/01/07 12:21:06;;;;;;;4.57;2.25;;;4.60;79.70;;;;;;5135198;27;20051;-81
2024/01/07 12:23:39;;;;;;;2.70;2.03;;;4.60;78.70;;;;;;5117676;27;20039;-80
2024/01/07 12:26:09;;;;;;;6.20;2.72;;;4.70;77.50;;;;;;5117836;27;20386;-81
2024/01/07 12:28:35;;;;;;;3.88;2.60;;;4.80;76.60;;;;;;5117621;27;20074;-81
2024/01/07 12:31:01;;;;;;;4.25;2.20;;;5.00;76.30;;;;;;5100674;27;20081;-81
2024/01/07 12:33:29;;;;;;;5.53;2.75;;;4.90;74.90;;;;;;5083889;27;20043;-80
2024/01/07 12:35:55;;;;;;;4.55;2.50;;;5.10;76.10;;;;;;5084370;27;20039;-80
2024/01/07 12:38:24;;;;;;;5.72;2.75;;;5.10;75.10;;;;;;5117709;27;20051;-80
2024/01/07 12:40:51;;;;;;;3.60;2.75;;;5.40;76.60;;;;;;5117946;27;20035;-81
2024/01/07 12:43:17;;;;;;;5.15;3.13;;;5.50;74.30;;;;;;5117754;27;20122;-80
2024/01/07 12:45:44;;;;;;;5.20;2.53;;;5.60;76.00;;;;;;5133716;27;20136;-82
2024/01/07 12:48:09;;;;;;;3.67;2.78;;;5.50;74.50;;;;;;5095491;27;20414;-81
2024/01/07 12:50:35;;;;;;;5.32;2.80;;;5.50;75.50;;;;;;5098972;27;20036;-81